createdAt,value
2023-08-31T00:00:00.972Z,50.27
2023-08-31T00:02:28.943Z,50.13
2023-08-31T00:04:57.007Z,50.23
2023-08-31T00:07:24.964Z,50.70
2023-08-31T00:09:54.919Z,50.53
2023-08-31T00:12:23.608Z,50.43
2023-08-31T00:14:52.307Z,50.43
2023-08-31T00:17:20.323Z,50.37
2023-08-31T00:19:48.229Z,50.50
2023-08-31T00:22:16.127Z,50.13
2023-08-31T00:24:44.045Z,49.87
2023-08-31T00:27:15.096Z,50.13
2023-08-31T00:29:50.382Z,50.60
2023-08-31T00:32:18.359Z,50.50
2023-08-31T00:34:46.821Z,50.10
2023-08-31T00:37:14.841Z,50.47
2023-08-31T00:39:42.736Z,50.20
2023-08-31T00:42:10.964Z,50.10
2023-08-31T00:44:40.229Z,50.37
2023-08-31T00:47:08.609Z,50.63
2023-08-31T00:49:36.553Z,50.23
2023-08-31T00:52:05.621Z,50.13
2023-08-31T00:54:33.637Z,50.37
2023-08-31T00:57:04.542Z,50.37
2023-08-31T00:59:32.593Z,50.43
2023-08-31T01:02:09.652Z,50.33
2023-08-31T01:04:50.131Z,50.13
2023-08-31T01:07:31.723Z,50.17
2023-08-31T01:10:09.127Z,50.17
2023-08-31T01:12:41.744Z,50.00
2023-08-31T01:15:14.206Z,50.30
2023-08-31T01:17:48.905Z,50.57
2023-08-31T01:20:21.929Z,50.47
2023-08-31T01:23:05.236Z,49.97
2023-08-31T01:25:35.298Z,50.37
2023-08-31T01:28:04.509Z,50.07
2023-08-31T01:30:33.592Z,50.10
2023-08-31T01:33:01.968Z,50.43
2023-08-31T01:35:35.951Z,50.53
2023-08-31T01:38:06.034Z,50.47
2023-08-31T01:40:38.654Z,50.40
2023-08-31T01:43:08.711Z,50.13
2023-08-31T01:45:38.693Z,50.53
2023-08-31T01:48:07.510Z,50.17
2023-08-31T01:50:36.444Z,50.17
2023-08-31T01:53:04.570Z,50.33
2023-08-31T01:55:32.517Z,50.43
2023-08-31T01:58:02.917Z,50.63
2023-08-31T02:00:35.718Z,50.30
2023-08-31T02:03:04.349Z,50.57
2023-08-31T02:05:32.288Z,50.37
2023-08-31T02:08:00.229Z,50.40
2023-08-31T02:10:30.643Z,50.47
2023-08-31T02:12:58.746Z,50.30
2023-08-31T02:15:28.141Z,50.60
2023-08-31T02:17:56.407Z,50.23
2023-08-31T02:20:25.205Z,50.07
2023-08-31T02:22:53.578Z,50.43
2023-08-31T02:25:21.478Z,50.27
2023-08-31T02:27:49.353Z,50.53
2023-08-31T02:30:17.396Z,50.27
2023-08-31T02:32:46.703Z,50.47
2023-08-31T02:35:16.080Z,50.23
2023-08-31T02:37:44.006Z,50.00
2023-08-31T02:40:13.254Z,49.83
2023-08-31T02:42:41.130Z,50.10
2023-08-31T02:45:09.815Z,49.93
2023-08-31T02:47:37.797Z,50.00
2023-08-31T02:50:08.938Z,50.23
2023-08-31T02:52:37.047Z,50.10
2023-08-31T02:55:05.782Z,50.03
2023-08-31T02:57:33.744Z,50.27
2023-08-31T03:00:01.652Z,50.27
2023-08-31T03:02:29.709Z,50.13
2023-08-31T03:04:57.810Z,50.17
2023-08-31T03:07:27.583Z,49.97
2023-08-31T03:09:55.525Z,50.27
2023-08-31T03:12:23.550Z,49.70
2023-08-31T03:14:51.466Z,50.00
2023-08-31T03:17:19.944Z,49.97
2023-08-31T03:19:47.991Z,50.17
2023-08-31T03:22:15.928Z,49.90
2023-08-31T03:24:45.366Z,49.97
2023-08-31T03:27:13.335Z,49.70
2023-08-31T03:29:42.338Z,49.77
2023-08-31T03:32:10.430Z,50.10
2023-08-31T03:34:38.688Z,49.93
2023-08-31T03:37:06.573Z,50.13
2023-08-31T03:39:35.806Z,50.20
2023-08-31T03:42:05.430Z,50.17
2023-08-31T03:44:33.603Z,49.87
2023-08-31T03:47:01.509Z,49.83
2023-08-31T03:49:29.465Z,50.30
2023-08-31T03:51:57.382Z,49.83
2023-08-31T03:54:25.738Z,49.83
2023-08-31T03:56:53.732Z,49.90
2023-08-31T03:59:23.178Z,50.17
2023-08-31T04:01:51.167Z,49.97
2023-08-31T04:04:20.550Z,50.03
2023-08-31T04:06:48.673Z,50.20
2023-08-31T04:09:16.545Z,49.87
2023-08-31T04:11:44.461Z,49.97
2023-08-31T04:14:12.421Z,50.20
2023-08-31T04:16:41.762Z,49.80
2023-08-31T04:19:10.264Z,50.07
2023-08-31T04:21:39.081Z,49.97
2023-08-31T04:24:07.749Z,49.83
2023-08-31T04:26:35.687Z,50.00
2023-08-31T04:29:05.071Z,50.07
2023-08-31T04:31:33.196Z,49.90
2023-08-31T04:34:03.272Z,49.67
2023-08-31T04:36:31.159Z,49.77
2023-08-31T04:38:59.120Z,50.07
2023-08-31T04:41:27.024Z,50.03
2023-08-31T04:43:54.989Z,50.10
2023-08-31T04:46:22.932Z,50.07
2023-08-31T04:48:50.842Z,50.07
2023-08-31T04:51:40.284Z,49.77
2023-08-31T04:54:09.850Z,50.37
2023-08-31T04:56:38.304Z,50.23
2023-08-31T04:59:06.287Z,50.27
2023-08-31T05:01:34.353Z,49.97
2023-08-31T05:04:03.388Z,49.83
2023-08-31T05:06:31.327Z,49.97
2023-08-31T05:09:00.566Z,49.97
2023-08-31T05:11:28.452Z,49.83
2023-08-31T05:13:56.384Z,50.10
2023-08-31T05:16:24.386Z,49.90
2023-08-31T05:18:52.336Z,50.20
2023-08-31T05:21:20.242Z,50.07
2023-08-31T05:23:48.213Z,50.03
2023-08-31T05:26:17.425Z,50.07
2023-08-31T05:28:45.415Z,50.27
2023-08-31T05:31:13.588Z,50.10
2023-08-31T05:33:41.656Z,49.87
2023-08-31T05:36:09.624Z,50.23
2023-08-31T05:38:37.692Z,49.93
2023-08-31T05:41:07.739Z,49.97
2023-08-31T05:43:40.971Z,49.93
2023-08-31T05:46:09.049Z,49.80
2023-08-31T05:48:37.708Z,50.07
2023-08-31T05:51:06.123Z,49.83
2023-08-31T05:53:34.551Z,49.73
2023-08-31T05:56:05.642Z,50.03
2023-08-31T05:58:34.729Z,50.20
2023-08-31T06:01:04.732Z,50.07
2023-08-31T06:03:32.983Z,49.80
2023-08-31T06:06:01.700Z,49.93
2023-08-31T06:08:30.536Z,49.87
2023-08-31T06:10:58.467Z,49.37
2023-08-31T06:13:26.449Z,49.77
2023-08-31T06:15:56.473Z,49.63
2023-08-31T06:18:25.824Z,49.63
2023-08-31T06:20:53.749Z,50.03
2023-08-31T06:23:22.156Z,49.87
2023-08-31T06:25:50.050Z,49.73
2023-08-31T06:28:18.022Z,49.67
2023-08-31T06:30:47.812Z,49.87
2023-08-31T06:33:16.790Z,49.37
2023-08-31T06:35:49.805Z,49.63
2023-08-31T06:38:17.674Z,49.73
2023-08-31T06:40:45.638Z,49.80
2023-08-31T06:43:13.820Z,49.93
2023-08-31T06:45:43.300Z,49.67
2023-08-31T06:48:11.467Z,49.87
2023-08-31T06:50:39.426Z,49.77
2023-08-31T06:53:08.675Z,49.60
2023-08-31T06:55:36.664Z,49.63
2023-08-31T06:58:05.451Z,49.77
2023-08-31T07:00:34.538Z,49.90
2023-08-31T07:03:02.519Z,49.47
2023-08-31T07:05:30.777Z,49.77
2023-08-31T07:07:59.397Z,49.73
2023-08-31T07:10:28.665Z,49.37
2023-08-31T07:12:56.655Z,49.80
2023-08-31T07:15:24.552Z,50.00
2023-08-31T07:17:52.486Z,49.80
2023-08-31T07:20:20.407Z,49.73
2023-08-31T07:22:48.546Z,49.90
2023-08-31T07:25:16.663Z,49.83
2023-08-31T07:27:45.866Z,49.80
2023-08-31T07:30:13.873Z,49.77
2023-08-31T07:32:41.790Z,50.10
2023-08-31T07:35:10.377Z,49.73
2023-08-31T07:37:39.206Z,50.43
2023-08-31T07:40:10.949Z,50.53
2023-08-31T07:42:38.965Z,50.23
2023-08-31T07:45:09.797Z,50.27
2023-08-31T07:47:37.783Z,50.27
2023-08-31T07:50:08.640Z,50.53
2023-08-31T07:52:36.569Z,50.63
2023-08-31T07:55:05.152Z,50.47
2023-08-31T07:57:33.074Z,50.77
2023-08-31T08:00:03.042Z,50.60
2023-08-31T08:02:41.974Z,50.53
2023-08-31T08:05:10.511Z,50.33
2023-08-31T08:07:38.501Z,50.73
2023-08-31T08:10:07.121Z,50.90
2023-08-31T08:12:40.196Z,51.03
2023-08-31T08:15:09.774Z,51.90
2023-08-31T08:17:37.909Z,51.47
2023-08-31T08:20:10.350Z,51.83
2023-08-31T08:22:38.305Z,52.07
2023-08-31T08:25:07.112Z,52.37
2023-08-31T08:27:35.845Z,52.77
2023-08-31T08:30:04.211Z,52.77
2023-08-31T08:32:32.158Z,52.93
2023-08-31T08:35:00.365Z,53.43
2023-08-31T08:37:30.390Z,52.83
2023-08-31T08:39:58.258Z,52.63
2023-08-31T08:42:27.255Z,52.93
2023-08-31T08:44:56.125Z,52.67
2023-08-31T08:47:24.792Z,52.57
2023-08-31T08:49:53.234Z,52.67
2023-08-31T08:52:21.564Z,52.77
2023-08-31T08:54:51.770Z,52.83
2023-08-31T08:57:19.694Z,52.03
2023-08-31T08:59:47.817Z,52.33
2023-08-31T09:02:15.856Z,52.53
2023-08-31T09:04:43.797Z,52.40
2023-08-31T09:07:11.865Z,52.13
2023-08-31T09:09:52.321Z,52.57
2023-08-31T09:12:20.823Z,52.07
2023-08-31T09:14:59.417Z,51.77
2023-08-31T09:17:28.079Z,52.10
2023-08-31T09:20:04.508Z,52.13
2023-08-31T09:22:32.853Z,51.60
2023-08-31T09:25:02.269Z,52.07
2023-08-31T09:27:32.080Z,52.33
2023-08-31T09:30:00.410Z,52.30
2023-08-31T09:32:28.420Z,52.37
2023-08-31T09:35:10.489Z,52.17
2023-08-31T09:37:42.690Z,52.40
2023-08-31T09:40:16.580Z,52.40
2023-08-31T09:42:44.514Z,51.83
2023-08-31T09:45:12.546Z,52.00
2023-08-31T09:47:40.532Z,51.80
2023-08-31T09:50:09.026Z,52.17
2023-08-31T09:52:37.444Z,52.40
2023-08-31T09:55:07.313Z,52.07
2023-08-31T09:57:45.638Z,51.93
2023-08-31T10:00:16.772Z,52.30
2023-08-31T10:02:45.955Z,52.27
2023-08-31T10:05:14.238Z,52.17
2023-08-31T10:07:42.426Z,52.23
2023-08-31T10:10:11.021Z,52.47
2023-08-31T10:12:41.965Z,52.37
2023-08-31T10:15:10.751Z,52.40
2023-08-31T10:17:39.896Z,52.23
2023-08-31T10:20:10.248Z,52.10
2023-08-31T10:22:39.404Z,52.10
2023-08-31T10:25:08.532Z,51.97
2023-08-31T10:27:41.772Z,52.10
2023-08-31T10:30:27.661Z,52.10
2023-08-31T10:33:22.610Z,51.90
2023-08-31T10:35:54.550Z,51.80
2023-08-31T10:38:31.395Z,52.00
2023-08-31T10:41:21.673Z,52.00
2023-08-31T10:43:52.730Z,52.30
2023-08-31T10:46:28.802Z,52.73
2023-08-31T10:48:57.926Z,52.43
2023-08-31T10:51:30.940Z,52.53
2023-08-31T10:54:10.838Z,52.77
2023-08-31T10:57:09.062Z,52.83
2023-08-31T10:59:52.443Z,52.27
2023-08-31T11:02:43.984Z,52.67
2023-08-31T11:05:13.578Z,51.97
2023-08-31T11:07:43.127Z,52.23
2023-08-31T11:10:13.907Z,52.57
2023-08-31T11:12:42.418Z,53.00
2023-08-31T11:15:15.061Z,52.83
2023-08-31T11:17:43.797Z,52.73
2023-08-31T11:20:17.481Z,52.57
2023-08-31T11:22:47.832Z,52.87
2023-08-31T11:25:16.626Z,52.37
2023-08-31T11:27:54.542Z,52.43
2023-08-31T11:30:23.878Z,52.93
2023-08-31T11:32:54.462Z,52.50
2023-08-31T11:35:24.891Z,52.80
2023-08-31T11:37:54.208Z,52.50
2023-08-31T11:40:22.210Z,52.63
2023-08-31T11:42:51.129Z,52.73
2023-08-31T11:45:20.233Z,52.30
2023-08-31T11:47:51.280Z,52.20
2023-08-31T11:50:20.238Z,52.10
2023-08-31T11:52:48.573Z,52.23
2023-08-31T11:55:18.377Z,52.67
2023-08-31T11:57:51.854Z,52.10
2023-08-31T12:00:21.729Z,52.40
2023-08-31T12:02:58.617Z,52.80
2023-08-31T12:05:27.296Z,52.83
2023-08-31T12:07:56.845Z,52.30
2023-08-31T12:10:26.950Z,52.27
2023-08-31T12:12:56.787Z,52.27
2023-08-31T12:15:25.063Z,52.20
2023-08-31T12:17:55.507Z,52.37
2023-08-31T12:20:28.809Z,52.07
2023-08-31T12:22:56.900Z,52.43
2023-08-31T12:25:25.292Z,52.63
2023-08-31T12:27:53.191Z,52.40
2023-08-31T12:30:21.100Z,52.53
2023-08-31T12:32:49.063Z,51.83
2023-08-31T12:35:17.170Z,52.63
2023-08-31T12:37:46.484Z,52.40
2023-08-31T12:40:14.868Z,52.57
2023-08-31T12:42:43.020Z,52.27
2023-08-31T12:45:11.405Z,51.87
2023-08-31T12:47:39.341Z,52.17
2023-08-31T12:50:08.302Z,51.67
2023-08-31T12:52:36.232Z,51.83
2023-08-31T12:55:05.954Z,51.57
2023-08-31T12:57:33.884Z,51.77
2023-08-31T13:00:01.771Z,52.10
2023-08-31T13:02:29.819Z,52.00
2023-08-31T13:04:57.822Z,52.10
2023-08-31T13:07:25.796Z,51.90
2023-08-31T13:09:53.708Z,52.30
2023-08-31T13:12:22.985Z,52.30
2023-08-31T13:14:50.905Z,52.13
2023-08-31T13:17:18.828Z,51.63
2023-08-31T13:19:46.722Z,51.87
2023-08-31T13:22:16.573Z,52.13
2023-08-31T13:24:44.621Z,51.70
2023-08-31T13:27:12.525Z,52.13
2023-08-31T13:29:41.769Z,51.70
2023-08-31T13:32:09.912Z,52.30
2023-08-31T13:34:38.750Z,51.93
2023-08-31T13:37:06.906Z,51.83
2023-08-31T13:39:41.350Z,51.80
2023-08-31T13:42:09.288Z,52.20
2023-08-31T13:44:37.362Z,52.23
2023-08-31T13:47:07.362Z,51.40
2023-08-31T13:49:35.268Z,52.37
2023-08-31T13:52:04.149Z,52.50
2023-08-31T13:54:32.058Z,52.60
2023-08-31T13:56:59.964Z,52.00
2023-08-31T13:59:28.846Z,52.27
2023-08-31T14:01:56.825Z,52.57
2023-08-31T14:04:26.133Z,52.83
2023-08-31T14:06:54.189Z,51.77
2023-08-31T14:09:22.083Z,52.30
2023-08-31T14:11:50.038Z,52.47
2023-08-31T14:14:17.996Z,52.60
2023-08-31T14:16:46.347Z,52.63
2023-08-31T14:19:14.248Z,52.37
2023-08-31T14:21:43.583Z,52.57
2023-08-31T14:24:11.514Z,52.10
2023-08-31T14:26:39.725Z,52.17
2023-08-31T14:29:07.654Z,52.40
2023-08-31T14:31:35.582Z,52.47
2023-08-31T14:34:03.554Z,52.70
2023-08-31T14:36:31.489Z,52.77
2023-08-31T14:39:00.706Z,52.50
2023-08-31T14:41:28.571Z,51.97
2023-08-31T14:43:56.534Z,52.63
2023-08-31T14:46:25.272Z,52.73
2023-08-31T14:48:54.737Z,52.33
2023-08-31T14:51:23.421Z,52.60
2023-08-31T14:53:51.327Z,52.33
2023-08-31T14:56:20.628Z,52.60
2023-08-31T14:58:48.539Z,52.40
2023-08-31T15:01:16.437Z,52.37
2023-08-31T15:03:44.459Z,52.63
2023-08-31T15:06:12.790Z,52.23
2023-08-31T15:08:42.411Z,52.20
2023-08-31T15:11:10.338Z,52.20
2023-08-31T15:13:39.678Z,52.37
2023-08-31T15:16:07.603Z,52.60
2023-08-31T15:18:35.586Z,52.63
2023-08-31T15:21:03.462Z,52.10
2023-08-31T15:23:31.388Z,52.13
2023-08-31T15:26:04.691Z,52.30
2023-08-31T15:28:32.636Z,52.37
2023-08-31T15:31:02.657Z,52.20
2023-08-31T15:33:30.566Z,52.43
2023-08-31T15:36:06.204Z,52.40
2023-08-31T15:38:34.510Z,52.17
2023-08-31T15:41:03.946Z,52.30
2023-08-31T15:43:33.714Z,52.53
2023-08-31T15:46:04.243Z,52.67
2023-08-31T15:48:32.396Z,52.57
2023-08-31T15:51:01.274Z,52.63
2023-08-31T15:53:29.772Z,52.47
2023-08-31T15:55:57.825Z,52.63
2023-08-31T15:58:27.526Z,52.13
2023-08-31T16:01:02.208Z,52.93
2023-08-31T16:03:32.355Z,52.87
2023-08-31T16:06:01.295Z,52.97
2023-08-31T16:08:30.115Z,52.57
2023-08-31T16:10:58.274Z,52.27
2023-08-31T16:13:26.216Z,52.83
2023-08-31T16:15:54.093Z,52.57
2023-08-31T16:18:22.113Z,52.60
2023-08-31T16:20:53.708Z,52.43
2023-08-31T16:23:24.320Z,51.60
2023-08-31T16:25:59.622Z,52.33
2023-08-31T16:28:27.535Z,52.30
2023-08-31T16:30:55.497Z,52.13
2023-08-31T16:33:24.955Z,51.50
2023-08-31T16:35:59.796Z,52.00
2023-08-31T16:38:28.203Z,52.20
2023-08-31T16:40:56.132Z,52.43
2023-08-31T16:43:25.030Z,52.30
2023-08-31T16:45:53.278Z,52.67
2023-08-31T16:48:21.680Z,52.33
2023-08-31T16:50:49.558Z,52.60
2023-08-31T16:53:19.048Z,52.40
2023-08-31T16:55:46.982Z,52.33
2023-08-31T16:58:15.031Z,52.47
2023-08-31T17:00:43.150Z,52.33
2023-08-31T17:03:12.028Z,52.33
2023-08-31T17:05:40.025Z,52.20
2023-08-31T17:08:08.143Z,52.37
2023-08-31T17:10:40.151Z,52.27
2023-08-31T17:13:08.070Z,51.90
2023-08-31T17:15:36.165Z,51.90
2023-08-31T17:18:04.539Z,52.10
2023-08-31T17:20:32.522Z,52.30
2023-08-31T17:23:01.016Z,52.17
2023-08-31T17:25:29.064Z,51.57
2023-08-31T17:27:58.310Z,51.63
2023-08-31T17:30:26.458Z,52.17
2023-08-31T17:32:54.465Z,51.53
2023-08-31T17:35:22.410Z,52.10
2023-08-31T17:37:50.274Z,52.03
2023-08-31T17:40:18.289Z,51.83
2023-08-31T17:42:46.194Z,51.70
2023-08-31T17:45:15.404Z,51.67
2023-08-31T17:47:43.332Z,51.67
2023-08-31T17:50:12.199Z,51.70
2023-08-31T17:52:40.121Z,51.80
2023-08-31T17:55:08.830Z,51.60
2023-08-31T17:57:36.784Z,52.20
2023-08-31T18:00:07.186Z,51.97
2023-08-31T18:02:38.393Z,51.73
2023-08-31T18:05:06.891Z,51.50
2023-08-31T18:07:34.770Z,51.60
2023-08-31T18:10:04.032Z,51.37
2023-08-31T18:12:31.933Z,51.73
2023-08-31T18:14:59.846Z,51.60
2023-08-31T18:17:27.731Z,51.57
2023-08-31T18:19:56.998Z,51.20
2023-08-31T18:22:24.916Z,51.40
2023-08-31T18:24:52.929Z,50.77
2023-08-31T18:27:20.937Z,51.47
2023-08-31T18:29:49.148Z,51.57
2023-08-31T18:32:17.075Z,50.90
2023-08-31T18:34:45.267Z,51.77
2023-08-31T18:37:14.584Z,50.93
2023-08-31T18:39:42.747Z,51.53
2023-08-31T18:42:10.683Z,51.93
2023-08-31T18:44:38.737Z,51.17
2023-08-31T18:47:06.836Z,51.53
2023-08-31T18:49:34.751Z,51.30
2023-08-31T18:52:02.907Z,51.30
2023-08-31T18:54:32.220Z,51.50
2023-08-31T18:57:00.136Z,51.33
2023-08-31T18:59:28.150Z,51.30
2023-08-31T19:01:56.100Z,51.27
2023-08-31T19:04:24.130Z,51.10
2023-08-31T19:06:53.160Z,51.13
2023-08-31T19:09:21.161Z,51.20
2023-08-31T19:11:52.261Z,51.33
2023-08-31T19:14:22.502Z,51.57
2023-08-31T19:16:51.924Z,51.13
2023-08-31T19:19:21.338Z,51.27
2023-08-31T19:21:49.279Z,50.97
2023-08-31T19:24:17.205Z,51.60
2023-08-31T19:26:45.590Z,51.43
2023-08-31T19:29:14.810Z,50.97
2023-08-31T19:31:42.792Z,51.63
2023-08-31T19:34:10.707Z,51.33
2023-08-31T19:36:41.243Z,51.00
2023-08-31T19:39:09.184Z,51.33
2023-08-31T19:41:37.121Z,51.13
2023-08-31T19:44:05.278Z,51.27
2023-08-31T19:46:34.559Z,51.60
2023-08-31T19:49:02.562Z,51.20
2023-08-31T19:51:30.569Z,51.27
2023-08-31T19:53:59.358Z,51.70
2023-08-31T19:56:27.278Z,51.07
2023-08-31T19:58:59.931Z,51.40
2023-08-31T20:01:28.113Z,51.57
2023-08-31T20:03:57.453Z,51.10
2023-08-31T20:06:25.766Z,51.17
2023-08-31T20:08:53.881Z,51.10
2023-08-31T20:11:22.787Z,51.23
2023-08-31T20:13:51.395Z,51.53
2023-08-31T20:16:19.361Z,51.93
2023-08-31T20:18:47.289Z,51.30
2023-08-31T20:21:17.298Z,51.43
2023-08-31T20:23:45.295Z,51.33
2023-08-31T20:26:13.155Z,51.37
2023-08-31T20:28:41.023Z,51.00
2023-08-31T20:31:11.114Z,51.53
2023-08-31T20:33:40.521Z,51.57
2023-08-31T20:36:10.136Z,51.23
2023-08-31T20:38:40.164Z,51.50
2023-08-31T20:41:09.590Z,51.03
2023-08-31T20:43:37.550Z,51.53
2023-08-31T20:46:10.054Z,51.10
2023-08-31T20:48:39.090Z,51.57
2023-08-31T20:51:08.160Z,51.07
2023-08-31T20:53:36.525Z,51.67
2023-08-31T20:56:09.945Z,50.97
2023-08-31T20:58:39.007Z,51.10
2023-08-31T21:01:07.804Z,51.17
2023-08-31T21:03:38.555Z,51.53
2023-08-31T21:06:07.433Z,51.03
2023-08-31T21:08:35.690Z,51.43
2023-08-31T21:11:03.628Z,50.80
2023-08-31T21:13:36.866Z,51.33
2023-08-31T21:16:05.962Z,51.00
2023-08-31T21:18:33.904Z,50.93
2023-08-31T21:21:02.300Z,50.97
2023-08-31T21:23:30.213Z,51.07
2023-08-31T21:26:01.257Z,50.93
2023-08-31T21:28:29.307Z,50.70
2023-08-31T21:31:00.927Z,51.23
2023-08-31T21:33:30.364Z,50.90
2023-08-31T21:35:58.320Z,51.13
2023-08-31T21:38:26.249Z,51.10
2023-08-31T21:40:54.098Z,51.17
2023-08-31T21:43:22.096Z,51.17
2023-08-31T21:45:50.502Z,51.13
2023-08-31T21:48:19.739Z,51.00
2023-08-31T21:50:47.596Z,50.87
2023-08-31T21:53:15.495Z,50.90
2023-08-31T21:55:43.864Z,50.67
2023-08-31T21:58:12.264Z,50.57
2023-08-31T22:00:41.116Z,50.70
2023-08-31T22:03:10.076Z,50.67
2023-08-31T22:05:40.526Z,50.67
2023-08-31T22:08:08.863Z,50.83
2023-08-31T22:10:37.460Z,50.97
2023-08-31T22:13:06.262Z,50.90
2023-08-31T22:15:34.600Z,50.87
2023-08-31T22:18:03.156Z,50.77
2023-08-31T22:20:32.481Z,50.87
2023-08-31T22:23:02.497Z,51.07
2023-08-31T22:25:31.233Z,50.57
2023-08-31T22:28:00.211Z,51.20
2023-08-31T22:30:28.815Z,50.80
2023-08-31T22:32:57.133Z,50.97
2023-08-31T22:35:25.150Z,50.73
2023-08-31T22:37:53.175Z,50.83
2023-08-31T22:40:22.604Z,51.27
2023-08-31T22:42:50.489Z,50.40
2023-08-31T22:45:18.464Z,50.47
2023-08-31T22:47:46.401Z,50.93
2023-08-31T22:50:14.333Z,50.73
2023-08-31T22:52:42.490Z,50.77
2023-08-31T22:55:10.673Z,51.03
2023-08-31T22:57:39.962Z,50.37
2023-08-31T23:00:09.520Z,50.60
2023-08-31T23:02:37.536Z,50.60
2023-08-31T23:05:06.260Z,50.63
2023-08-31T23:07:34.174Z,50.50
2023-08-31T23:10:02.169Z,50.77
2023-08-31T23:12:30.144Z,50.63
2023-08-31T23:14:59.403Z,50.77
2023-08-31T23:17:27.342Z,50.53
2023-08-31T23:19:55.206Z,50.60
2023-08-31T23:22:23.102Z,50.57
2023-08-31T23:24:51.019Z,51.13
2023-08-31T23:27:18.925Z,50.63
2023-08-31T23:29:46.792Z,51.03
2023-08-31T23:32:16.001Z,50.53
2023-08-31T23:34:43.883Z,50.67
2023-08-31T23:37:12.612Z,50.87
2023-08-31T23:39:40.520Z,51.10
2023-08-31T23:42:08.521Z,50.67
2023-08-31T23:44:36.459Z,50.60
2023-08-31T23:47:04.435Z,50.73
2023-08-31T23:49:33.773Z,50.63
2023-08-31T23:52:01.681Z,50.40
2023-08-31T23:54:32.587Z,50.47
2023-08-31T23:57:00.490Z,50.93
2023-08-31T23:59:28.521Z,50.30
